createdAt,value
2022-09-22T00:01:56.017Z,24.80
2022-09-22T00:04:25.239Z,24.80
2022-09-22T00:06:56.409Z,24.80
2022-09-22T00:09:26.230Z,24.90
2022-09-22T00:11:56.799Z,24.90
2022-09-22T00:14:29.805Z,25.00
2022-09-22T00:17:02.551Z,25.00
2022-09-22T00:19:37.511Z,25.00
2022-09-22T00:22:08.017Z,25.10
2022-09-22T00:24:37.299Z,25.10
2022-09-22T00:27:07.389Z,25.20
2022-09-22T00:29:37.427Z,25.20
2022-09-22T00:32:07.467Z,25.20
2022-09-22T00:34:39.439Z,25.30
2022-09-22T00:37:08.550Z,25.30
2022-09-22T00:39:38.042Z,25.40
2022-09-22T00:42:07.436Z,25.40
2022-09-22T00:44:46.321Z,25.40
2022-09-22T00:47:38.466Z,25.50
2022-09-22T00:50:23.343Z,25.50
2022-09-22T00:53:16.694Z,25.60
2022-09-22T00:55:59.786Z,25.60
2022-09-22T00:58:43.837Z,25.70
2022-09-22T01:01:13.835Z,25.70
2022-09-22T01:03:44.966Z,25.80
2022-09-22T01:06:20.757Z,25.80
2022-09-22T01:08:54.289Z,25.80
2022-09-22T01:11:26.371Z,25.90
2022-09-22T01:14:39.650Z,25.90
2022-09-22T01:17:50.078Z,26.00
2022-09-22T01:21:03.482Z,26.00
2022-09-22T01:24:29.564Z,26.10
2022-09-22T01:27:48.683Z,26.10
2022-09-22T01:30:45.235Z,26.20
2022-09-22T01:33:56.585Z,26.30
2022-09-22T01:37:03.340Z,26.30
2022-09-22T01:39:47.650Z,26.40
2022-09-22T01:42:34.898Z,26.50
2022-09-22T01:45:25.814Z,26.50
2022-09-22T01:48:12.736Z,26.60
2022-09-22T01:50:54.930Z,26.60
2022-09-22T01:53:31.681Z,26.60
2022-09-22T01:56:09.245Z,26.60
2022-09-22T01:58:47.428Z,26.60
2022-09-22T02:01:27.344Z,26.70
2022-09-22T02:04:25.012Z,26.70
2022-09-22T02:07:17.032Z,26.70
2022-09-22T02:09:50.343Z,26.80
2022-09-22T02:12:20.854Z,26.80
2022-09-22T02:14:51.240Z,26.90
2022-09-22T02:17:23.804Z,26.90
2022-09-22T02:19:53.379Z,26.90
2022-09-22T02:22:23.428Z,27.00
2022-09-22T02:24:52.815Z,27.00
2022-09-22T02:27:37.538Z,27.10
2022-09-22T02:30:13.060Z,27.10
2022-09-22T02:32:49.266Z,27.20
2022-09-22T02:35:19.491Z,27.30
2022-09-22T02:38:04.713Z,27.30
2022-09-22T02:41:15.867Z,27.40
2022-09-22T02:44:04.822Z,27.40
2022-09-22T02:46:57.387Z,27.50
2022-09-22T02:49:29.328Z,27.50
2022-09-22T02:52:00.360Z,27.60
2022-09-22T02:54:29.578Z,27.60
2022-09-22T02:57:01.252Z,27.70
2022-09-22T02:59:30.574Z,27.80
2022-09-22T03:01:59.925Z,27.80
2022-09-22T03:04:29.222Z,27.90
2022-09-22T03:06:58.710Z,27.90
2022-09-22T03:09:27.924Z,27.90
2022-09-22T03:11:57.161Z,28.00
2022-09-22T03:14:26.637Z,27.90
2022-09-22T03:16:55.871Z,28.00
2022-09-22T03:19:25.153Z,28.00
2022-09-22T03:21:54.490Z,28.00
2022-09-22T03:24:23.768Z,28.00
2022-09-22T03:26:52.899Z,28.00
2022-09-22T03:29:22.085Z,28.00
2022-09-22T03:31:51.579Z,28.10
2022-09-22T03:34:20.742Z,28.20
2022-09-22T03:36:49.957Z,28.30
2022-09-22T03:39:19.234Z,28.40
2022-09-22T03:41:48.423Z,28.60
2022-09-22T03:44:18.267Z,28.70
2022-09-22T03:46:47.848Z,28.70
2022-09-22T03:49:17.146Z,28.70
2022-09-22T03:51:46.433Z,28.70
2022-09-22T03:54:15.752Z,28.80
2022-09-22T03:56:44.917Z,28.80
2022-09-22T03:59:14.182Z,28.80
2022-09-22T04:01:43.887Z,28.90
2022-09-22T04:04:13.413Z,28.90
2022-09-22T04:06:44.667Z,29.00
2022-09-22T04:09:14.055Z,29.10
2022-09-22T04:11:43.434Z,29.10
2022-09-22T04:14:13.013Z,29.20
2022-09-22T04:16:43.473Z,29.20
2022-09-22T04:19:13.193Z,29.20
2022-09-22T04:21:43.045Z,29.20
2022-09-22T04:24:12.674Z,29.20
2022-09-22T04:26:56.369Z,29.20
2022-09-22T04:29:31.774Z,29.20
2022-09-22T04:32:01.071Z,29.20
2022-09-22T04:34:30.223Z,29.30
2022-09-22T04:36:59.620Z,29.30
2022-09-22T04:39:29.696Z,29.40
2022-09-22T04:41:58.899Z,29.50
2022-09-22T04:44:30.291Z,29.60
2022-09-22T04:47:01.350Z,29.80
2022-09-22T04:49:30.564Z,29.90
2022-09-22T04:52:00.117Z,30.10
2022-09-22T04:54:29.350Z,30.20
2022-09-22T04:56:58.643Z,30.40
2022-09-22T04:59:27.891Z,30.50
2022-09-22T05:01:57.256Z,30.60
2022-09-22T05:04:27.191Z,30.60
2022-09-22T05:06:56.940Z,30.60
2022-09-22T05:09:26.079Z,30.70
2022-09-22T05:12:02.392Z,30.80
2022-09-22T05:14:32.743Z,30.90
2022-09-22T05:17:02.240Z,30.90
2022-09-22T05:19:31.459Z,31.00
2022-09-22T05:22:01.230Z,31.00
2022-09-22T05:24:31.054Z,31.00
2022-09-22T05:27:00.914Z,31.00
2022-09-22T05:29:30.950Z,31.10
2022-09-22T05:32:00.467Z,31.20
2022-09-22T05:34:29.769Z,31.30
2022-09-22T05:36:59.022Z,31.40
2022-09-22T05:39:28.289Z,31.50
2022-09-22T05:41:57.730Z,31.60
2022-09-22T05:44:26.904Z,31.80
2022-09-22T05:46:56.295Z,31.80
2022-09-22T05:49:25.671Z,31.90
2022-09-22T05:51:58.360Z,32.10
2022-09-22T05:54:27.946Z,32.10
2022-09-22T05:56:58.201Z,32.20
2022-09-22T05:59:27.467Z,32.40
2022-09-22T06:01:59.675Z,32.40
2022-09-22T06:04:29.569Z,32.50
2022-09-22T06:07:01.183Z,32.50
2022-09-22T06:09:30.362Z,32.50
2022-09-22T06:11:59.891Z,32.50
2022-09-22T06:14:29.181Z,32.50
2022-09-22T06:17:00.145Z,32.50
2022-09-22T06:19:30.644Z,32.50
2022-09-22T06:21:59.845Z,32.50
2022-09-22T06:24:29.320Z,32.40
2022-09-22T06:26:58.582Z,32.40
2022-09-22T06:29:27.892Z,32.40
2022-09-22T06:31:57.159Z,32.30
2022-09-22T06:34:28.189Z,32.20
2022-09-22T06:36:58.149Z,32.20
2022-09-22T06:39:27.659Z,32.20
2022-09-22T06:42:02.248Z,32.20
2022-09-22T06:44:32.697Z,32.10
2022-09-22T06:47:09.640Z,32.10
2022-09-22T06:49:38.821Z,32.10
2022-09-22T06:52:12.211Z,32.10
2022-09-22T06:54:42.186Z,32.00
2022-09-22T06:57:12.683Z,32.00
2022-09-22T06:59:42.246Z,31.90
2022-09-22T07:02:11.964Z,31.90
2022-09-22T07:04:41.426Z,31.90
2022-09-22T07:07:11.149Z,31.90
2022-09-22T07:09:40.329Z,31.90
2022-09-22T07:12:09.624Z,31.90
2022-09-22T07:14:38.930Z,31.90
2022-09-22T07:17:08.174Z,31.90
2022-09-22T07:19:37.538Z,31.80
2022-09-22T07:22:07.986Z,31.80
2022-09-22T07:24:37.233Z,31.60
2022-09-22T07:27:08.093Z,31.40
2022-09-22T07:29:37.358Z,31.20
2022-09-22T07:32:07.501Z,31.00
2022-09-22T07:34:36.885Z,30.80
2022-09-22T07:37:06.151Z,30.60
2022-09-22T07:39:35.474Z,30.50
2022-09-22T07:42:04.748Z,30.40
2022-09-22T07:44:46.185Z,30.30
2022-09-22T07:47:15.597Z,30.20
2022-09-22T07:49:46.053Z,30.20
2022-09-22T07:52:15.505Z,30.10
2022-09-22T07:54:44.735Z,30.10
2022-09-22T07:57:14.150Z,30.00
2022-09-22T07:59:43.424Z,29.90
2022-09-22T08:02:12.770Z,29.90
2022-09-22T08:04:42.222Z,29.80
2022-09-22T08:07:11.618Z,29.80
2022-09-22T08:09:42.016Z,29.70
2022-09-22T08:12:14.873Z,29.70
2022-09-22T08:14:44.355Z,29.60
2022-09-22T08:17:14.018Z,29.60
2022-09-22T08:19:43.896Z,29.50
2022-09-22T08:22:13.554Z,29.50
2022-09-22T08:24:45.335Z,29.50
2022-09-22T08:27:14.695Z,29.40
2022-09-22T08:29:44.830Z,29.40
2022-09-22T08:32:18.574Z,29.30
2022-09-22T08:34:47.929Z,29.30
2022-09-22T08:37:17.069Z,29.30
2022-09-22T08:39:46.317Z,29.20
2022-09-22T08:42:24.088Z,29.10
2022-09-22T08:45:32.408Z,29.10
2022-09-22T08:48:31.521Z,29.00
2022-09-22T08:51:47.118Z,29.00
2022-09-22T08:54:18.221Z,28.90
2022-09-22T08:57:23.600Z,28.80
2022-09-22T09:00:15.786Z,28.70
2022-09-22T09:03:15.989Z,28.70
2022-09-22T09:06:22.558Z,28.60
2022-09-22T09:09:38.646Z,28.50
2022-09-22T09:12:51.786Z,28.40
2022-09-22T09:16:16.316Z,28.40
2022-09-22T09:19:06.551Z,28.30
2022-09-22T09:21:42.053Z,28.30
2022-09-22T09:27:40.314Z,28.20
2022-09-22T09:30:52.891Z,28.20
2022-09-22T09:34:03.875Z,28.20
2022-09-22T09:36:42.264Z,28.10
2022-09-22T09:39:40.406Z,28.10
2022-09-22T09:42:28.388Z,28.10
2022-09-22T09:45:03.604Z,28.00
2022-09-22T09:48:12.114Z,28.00
2022-09-22T09:50:41.424Z,28.00
2022-09-22T09:53:40.858Z,28.00
2022-09-22T09:56:29.976Z,28.00
2022-09-22T09:59:20.821Z,27.90
2022-09-22T10:01:55.054Z,27.90
2022-09-22T10:04:34.432Z,27.90
2022-09-22T10:07:22.909Z,27.90
2022-09-22T10:09:55.705Z,27.80
2022-09-22T10:12:34.753Z,27.80
2022-09-22T10:15:04.510Z,27.80
2022-09-22T10:17:43.835Z,27.80
2022-09-22T10:20:29.215Z,27.70
2022-09-22T10:23:22.691Z,27.70
2022-09-22T10:25:52.468Z,27.70
2022-09-22T10:28:23.953Z,27.70
2022-09-22T10:31:04.481Z,27.60
2022-09-22T10:33:35.439Z,27.60
2022-09-22T10:36:13.272Z,27.50
2022-09-22T10:38:46.003Z,27.50
2022-09-22T10:41:28.492Z,27.50
2022-09-22T10:44:42.837Z,27.40
2022-09-22T10:48:05.153Z,27.40
2022-09-22T10:51:30.398Z,27.40
2022-09-22T10:54:43.914Z,27.40
2022-09-22T10:57:57.640Z,27.30
2022-09-22T11:00:29.356Z,27.30
2022-09-22T11:03:44.632Z,27.20
2022-09-22T11:07:02.550Z,27.20
2022-09-22T11:10:12.136Z,27.10
2022-09-22T11:13:26.821Z,27.10
2022-09-22T11:16:46.233Z,27.10
2022-09-22T11:20:07.951Z,27.10
2022-09-22T11:23:14.357Z,27.00
2022-09-22T11:26:30.101Z,27.00
2022-09-22T11:29:35.958Z,26.90
2022-09-22T11:32:56.729Z,26.80
2022-09-22T11:36:12.853Z,26.80
2022-09-22T11:39:33.509Z,26.80
2022-09-22T11:42:40.351Z,26.80
2022-09-22T11:45:57.620Z,26.80
2022-09-22T11:49:08.211Z,26.70
2022-09-22T11:52:17.388Z,26.70
2022-09-22T11:55:24.593Z,26.70
2022-09-22T11:58:04.842Z,26.60
2022-09-22T12:00:49.887Z,26.60
2022-09-22T12:03:28.035Z,26.60
2022-09-22T12:06:06.816Z,26.60
2022-09-22T12:11:33.694Z,26.60
2022-09-22T12:14:04.116Z,26.60
2022-09-22T12:16:56.402Z,26.50
2022-09-22T12:20:05.591Z,26.50
2022-09-22T12:23:12.485Z,26.50
2022-09-22T12:25:57.447Z,26.50
2022-09-22T12:28:33.903Z,26.50
2022-09-22T12:31:16.370Z,26.50
2022-09-22T12:33:56.991Z,26.50
2022-09-22T12:36:40.489Z,26.50
2022-09-22T12:39:24.530Z,26.40
2022-09-22T12:42:09.573Z,26.40
2022-09-22T12:45:03.283Z,26.40
2022-09-22T12:47:43.569Z,26.40
2022-09-22T12:50:41.652Z,26.40
2022-09-22T12:53:29.980Z,26.40
2022-09-22T12:56:00.118Z,26.40
2022-09-22T12:58:47.876Z,26.40
2022-09-22T13:01:34.835Z,26.40
2022-09-22T13:04:19.764Z,26.40
2022-09-22T13:06:55.926Z,26.50
2022-09-22T13:09:31.159Z,26.40
2022-09-22T13:12:28.586Z,26.40
2022-09-22T13:15:21.344Z,26.40
2022-09-22T13:18:01.651Z,26.40
2022-09-22T13:20:35.623Z,26.40
2022-09-22T13:23:13.319Z,26.40
2022-09-22T13:25:46.282Z,26.40
2022-09-22T13:28:28.976Z,26.40
2022-09-22T13:31:19.120Z,26.40
2022-09-22T13:33:48.463Z,26.50
2022-09-22T13:36:26.368Z,26.40
2022-09-22T13:39:00.170Z,26.40
2022-09-22T13:41:41.468Z,26.40
2022-09-22T13:44:15.798Z,26.40
2022-09-22T13:46:52.329Z,26.40
2022-09-22T13:49:48.888Z,26.40
2022-09-22T13:52:30.979Z,26.40
2022-09-22T13:55:20.334Z,26.40
2022-09-22T13:57:50.054Z,26.40
2022-09-22T14:01:08.626Z,26.40
2022-09-22T14:03:39.825Z,26.40
2022-09-22T14:06:16.924Z,26.40
2022-09-22T14:08:51.884Z,26.40
2022-09-22T14:11:34.963Z,26.40
2022-09-22T14:14:12.890Z,26.40
2022-09-22T14:17:34.819Z,26.50
2022-09-22T14:20:11.139Z,26.40
2022-09-22T14:22:56.141Z,26.40
2022-09-22T14:25:33.234Z,26.40
2022-09-22T14:28:08.827Z,26.40
2022-09-22T14:30:43.026Z,26.40
2022-09-22T14:33:40.921Z,26.40
2022-09-22T14:36:19.019Z,26.40
2022-09-22T14:39:12.810Z,26.40
2022-09-22T14:42:02.408Z,26.40
2022-09-22T14:44:50.662Z,26.40
2022-09-22T14:47:33.507Z,26.30
2022-09-22T14:50:43.424Z,26.30
2022-09-22T14:53:32.877Z,26.30
2022-09-22T14:56:25.409Z,26.30
2022-09-22T14:59:01.372Z,26.40
2022-09-22T15:01:47.286Z,26.30
2022-09-22T15:04:28.706Z,26.30
2022-09-22T15:07:00.474Z,26.30
2022-09-22T15:09:47.049Z,26.30
2022-09-22T15:12:47.425Z,26.30
2022-09-22T15:15:33.182Z,26.20
2022-09-22T15:18:15.114Z,26.20
2022-09-22T15:21:01.352Z,26.20
2022-09-22T15:23:46.683Z,26.20
2022-09-22T15:26:27.120Z,26.20
2022-09-22T15:29:00.109Z,26.20
2022-09-22T15:31:30.845Z,26.20
2022-09-22T15:34:04.142Z,26.20
2022-09-22T15:36:40.818Z,26.20
2022-09-22T15:39:24.622Z,26.20
2022-09-22T15:41:55.000Z,26.20
2022-09-22T15:44:24.221Z,26.10
2022-09-22T15:46:56.036Z,26.10
2022-09-22T15:49:28.926Z,26.10
2022-09-22T15:51:58.554Z,26.10
2022-09-22T15:54:28.497Z,26.10
2022-09-22T15:57:01.598Z,26.10
2022-09-22T15:59:34.705Z,26.10
2022-09-22T16:02:16.788Z,26.00
2022-09-22T16:04:49.263Z,26.00
2022-09-22T16:07:18.818Z,26.00
2022-09-22T16:09:48.792Z,26.00
2022-09-22T16:12:21.542Z,26.00
2022-09-22T16:14:55.258Z,26.00
2022-09-22T16:17:25.912Z,26.00
2022-09-22T16:19:55.295Z,26.00
2022-09-22T16:22:36.913Z,26.00
2022-09-22T16:25:12.365Z,26.00
2022-09-22T16:27:41.592Z,26.00
2022-09-22T16:30:12.367Z,26.00
2022-09-22T16:32:41.816Z,26.00
2022-09-22T16:35:11.884Z,26.00
2022-09-22T16:37:41.297Z,26.00
2022-09-22T16:40:11.586Z,26.00
2022-09-22T16:42:42.121Z,25.90
2022-09-22T16:45:14.661Z,25.90
2022-09-22T16:47:43.968Z,25.90
2022-09-22T16:50:13.552Z,25.90
2022-09-22T16:52:43.199Z,25.90
2022-09-22T16:55:12.591Z,25.90
2022-09-22T16:57:41.785Z,25.90
2022-09-22T17:00:13.332Z,25.90
2022-09-22T17:02:47.055Z,25.90
2022-09-22T17:05:17.002Z,25.90
2022-09-22T17:07:48.375Z,25.90
2022-09-22T17:10:17.935Z,25.90
2022-09-22T17:12:47.275Z,25.90
2022-09-22T17:15:17.453Z,25.90
2022-09-22T17:17:46.828Z,25.90
2022-09-22T17:20:16.152Z,25.80
2022-09-22T17:22:46.183Z,25.90
2022-09-22T17:25:16.689Z,25.80
2022-09-22T17:27:45.887Z,25.90
2022-09-22T17:30:17.129Z,25.80
2022-09-22T17:32:48.400Z,25.80
2022-09-22T17:35:17.666Z,25.80
2022-09-22T17:37:48.319Z,25.80
2022-09-22T17:40:17.787Z,25.80
2022-09-22T17:42:48.195Z,25.80
2022-09-22T17:45:17.520Z,25.80
2022-09-22T17:47:59.030Z,25.80
2022-09-22T17:50:40.525Z,25.80
2022-09-22T17:53:23.032Z,25.80
2022-09-22T17:55:54.165Z,25.80
2022-09-22T17:58:23.915Z,25.80
2022-09-22T18:00:53.404Z,25.80
2022-09-22T18:03:22.600Z,25.80
2022-09-22T18:05:55.828Z,25.80
2022-09-22T18:08:26.525Z,25.80
2022-09-22T18:10:56.113Z,25.80
2022-09-22T18:13:25.511Z,25.80
2022-09-22T18:15:55.517Z,25.70
2022-09-22T18:18:25.200Z,25.80
2022-09-22T18:20:54.950Z,25.80
2022-09-22T18:23:28.426Z,25.80
2022-09-22T18:26:02.728Z,25.70
2022-09-22T18:28:32.151Z,25.80
2022-09-22T18:31:01.919Z,25.80
2022-09-22T18:33:32.734Z,25.80
2022-09-22T18:36:02.087Z,25.80
2022-09-22T18:38:33.759Z,25.70
2022-09-22T18:41:02.885Z,25.70
2022-09-22T18:43:32.099Z,25.70
2022-09-22T18:46:01.524Z,25.70
2022-09-22T18:48:30.852Z,25.70
2022-09-22T18:51:01.442Z,25.70
2022-09-22T18:53:30.721Z,25.80
2022-09-22T18:56:12.633Z,25.70
2022-09-22T18:58:41.902Z,25.70
2022-09-22T19:05:13.431Z,25.70
2022-09-22T19:07:44.471Z,25.70
2022-09-22T19:10:21.498Z,25.70
2022-09-22T19:12:51.385Z,25.70
2022-09-22T19:15:21.905Z,25.60
2022-09-22T19:17:51.732Z,25.60
2022-09-22T19:20:27.221Z,25.60
2022-09-22T19:22:56.719Z,25.60
2022-09-22T19:25:26.375Z,25.60
2022-09-22T19:27:56.571Z,25.60
2022-09-22T19:30:29.588Z,25.60
2022-09-22T19:33:01.219Z,25.60
2022-09-22T19:35:31.237Z,25.60
2022-09-22T19:38:00.794Z,25.60
2022-09-22T19:40:30.867Z,25.60
2022-09-22T19:43:02.862Z,25.50
2022-09-22T19:45:32.186Z,25.60
2022-09-22T19:48:01.401Z,25.60
2022-09-22T19:50:30.626Z,25.50
2022-09-22T19:53:00.272Z,25.50
2022-09-22T19:55:29.418Z,25.50
2022-09-22T19:57:58.986Z,25.60
2022-09-22T20:00:28.765Z,25.60
2022-09-22T20:02:59.459Z,25.60
2022-09-22T20:05:37.885Z,25.50
2022-09-22T20:08:16.960Z,25.60
2022-09-22T20:10:49.562Z,25.60
2022-09-22T20:13:32.040Z,25.60
2022-09-22T20:16:02.461Z,25.50
2022-09-22T20:18:31.899Z,25.50
2022-09-22T20:21:05.767Z,25.50
2022-09-22T20:23:35.127Z,25.50
2022-09-22T20:26:04.281Z,25.50
2022-09-22T20:28:33.580Z,25.50
2022-09-22T20:31:02.921Z,25.50
2022-09-22T20:33:32.716Z,25.50
2022-09-22T20:36:01.888Z,25.50
2022-09-22T20:38:31.183Z,25.50
2022-09-22T20:41:03.860Z,25.50
2022-09-22T20:43:33.175Z,25.50
2022-09-22T20:46:06.235Z,25.50
2022-09-22T20:48:35.605Z,25.50
2022-09-22T20:51:04.918Z,25.50
2022-09-22T20:53:38.587Z,25.50
2022-09-22T20:56:12.034Z,25.50
2022-09-22T20:58:45.834Z,25.50
2022-09-22T21:01:18.164Z,25.50
2022-09-22T21:03:47.429Z,25.50
2022-09-22T21:06:18.861Z,25.50
2022-09-22T21:09:00.663Z,25.50
2022-09-22T21:11:31.868Z,25.50
2022-09-22T21:14:05.053Z,25.50
2022-09-22T21:16:37.246Z,25.50
2022-09-22T21:19:08.458Z,25.50
2022-09-22T21:21:38.851Z,25.50
2022-09-22T21:24:09.231Z,25.50
2022-09-22T21:26:39.013Z,25.50
2022-09-22T21:29:08.312Z,25.50
2022-09-22T21:31:38.523Z,25.50
2022-09-22T21:34:07.775Z,25.50
2022-09-22T21:36:37.360Z,25.50
2022-09-22T21:39:06.990Z,25.50
2022-09-22T21:41:36.424Z,25.50
2022-09-22T21:44:06.922Z,25.50
2022-09-22T21:46:42.354Z,25.50
2022-09-22T21:49:12.372Z,25.50
2022-09-22T21:51:45.150Z,25.50
2022-09-22T21:54:19.240Z,25.50
2022-09-22T21:56:51.746Z,25.50
2022-09-22T21:59:21.487Z,25.50
2022-09-22T22:01:50.734Z,25.50
2022-09-22T22:04:20.250Z,25.50
2022-09-22T22:06:49.638Z,25.50
2022-09-22T22:09:26.736Z,25.50
2022-09-22T22:12:00.360Z,25.50
2022-09-22T22:14:33.120Z,25.50
2022-09-22T22:17:03.762Z,25.50
2022-09-22T22:19:33.061Z,25.50
2022-09-22T22:22:02.530Z,25.50
2022-09-22T22:24:31.754Z,25.50
2022-09-22T22:27:11.086Z,25.50
2022-09-22T22:29:40.657Z,25.50
2022-09-22T22:32:12.158Z,25.40
2022-09-22T22:34:41.396Z,25.40
2022-09-22T22:37:11.771Z,25.40
2022-09-22T22:39:41.095Z,25.40
2022-09-22T22:42:10.291Z,25.40
2022-09-22T22:44:39.609Z,25.40
2022-09-22T22:47:09.556Z,25.40
2022-09-22T22:49:38.719Z,25.30
2022-09-22T22:52:07.924Z,25.30
2022-09-22T22:54:37.211Z,25.40
2022-09-22T22:57:06.546Z,25.40
2022-09-22T22:59:35.835Z,25.40
2022-09-22T23:02:05.087Z,25.40
2022-09-22T23:04:34.383Z,25.40
2022-09-22T23:07:03.590Z,25.40
2022-09-22T23:09:33.369Z,25.40
2022-09-22T23:12:03.054Z,25.40
2022-09-22T23:14:32.297Z,25.40
2022-09-22T23:17:01.627Z,25.40
2022-09-22T23:19:30.886Z,25.40
2022-09-22T23:22:00.276Z,25.40
2022-09-22T23:24:29.612Z,25.40
2022-09-22T23:26:59.573Z,25.40
2022-09-22T23:29:28.798Z,25.40
2022-09-22T23:31:58.027Z,25.40
2022-09-22T23:34:27.252Z,25.40
2022-09-22T23:36:56.610Z,25.40
2022-09-22T23:39:25.930Z,25.40
2022-09-22T23:41:56.143Z,25.40
2022-09-22T23:44:25.408Z,25.50
2022-09-22T23:46:54.811Z,25.50
2022-09-22T23:49:24.073Z,25.50
2022-09-22T23:51:56.315Z,25.50
2022-09-22T23:54:26.197Z,25.60
2022-09-22T23:56:55.711Z,25.60
2022-09-22T23:59:24.867Z,25.60
